sensor_id;sensor_type;location;lat;lon;timestamp;temperature;humidity
16479;DHT22;8350;52.316;10.530;2022-11-20T00:01:28;-3.00;99.90
16479;DHT22;8350;52.316;10.530;2022-11-20T00:03:56;-3.00;99.90
16479;DHT22;8350;52.316;10.530;2022-11-20T00:06:26;-3.10;99.90
16479;DHT22;8350;52.316;10.530;2022-11-20T00:08:54;-3.10;99.90
16479;DHT22;8350;52.316;10.530;2022-11-20T00:11:24;-3.10;99.90
16479;DHT22;8350;52.316;10.530;2022-11-20T00:13:53;-3.10;99.90
16479;DHT22;8350;52.316;10.530;2022-11-20T00:16:22;-3.00;99.90
16479;DHT22;8350;52.316;10.530;2022-11-20T00:18:50;-3.00;99.90
16479;DHT22;8350;52.316;10.530;2022-11-20T00:21:19;-3.00;99.90
16479;DHT22;8350;52.316;10.530;2022-11-20T00:23:48;-2.90;99.90
16479;DHT22;8350;52.316;10.530;2022-11-20T00:26:17;-2.90;99.90
16479;DHT22;8350;52.316;10.530;2022-11-20T00:28:49;-2.90;99.90
16479;DHT22;8350;52.316;10.530;2022-11-20T00:31:16;-2.90;99.90
16479;DHT22;8350;52.316;10.530;2022-11-20T00:33:45;-3.00;99.90
16479;DHT22;8350;52.316;10.530;2022-11-20T00:36:14;-3.00;99.90
16479;DHT22;8350;52.316;10.530;2022-11-20T00:38:42;-3.10;99.90
16479;DHT22;8350;52.316;10.530;2022-11-20T00:41:12;-3.10;99.90
16479;DHT22;8350;52.316;10.530;2022-11-20T00:43:39;-3.10;99.90
16479;DHT22;8350;52.316;10.530;2022-11-20T00:46:08;-3.00;99.90
16479;DHT22;8350;52.316;10.530;2022-11-20T00:48:38;-3.00;99.90
16479;DHT22;8350;52.316;10.530;2022-11-20T00:51:06;-2.90;99.90
16479;DHT22;8350;52.316;10.530;2022-11-20T00:53:33;-2.90;99.90
16479;DHT22;8350;52.316;10.530;2022-11-20T00:56:02;-2.90;99.90
16479;DHT22;8350;52.316;10.530;2022-11-20T00:58:32;-2.90;99.90
16479;DHT22;8350;52.316;10.530;2022-11-20T01:01:00;-2.90;99.90
16479;DHT22;8350;52.316;10.530;2022-11-20T01:03:27;-2.80;99.90
16479;DHT22;8350;52.316;10.530;2022-11-20T01:06:00;-2.90;99.90
16479;DHT22;8350;52.316;10.530;2022-11-20T01:08:29;-2.90;99.90
16479;DHT22;8350;52.316;10.530;2022-11-20T01:10:59;-2.90;99.90
16479;DHT22;8350;52.316;10.530;2022-11-20T01:13:31;-2.90;99.90
16479;DHT22;8350;52.316;10.530;2022-11-20T01:16:05;-3.00;99.90
16479;DHT22;8350;52.316;10.530;2022-11-20T01:18:33;-3.00;99.90
16479;DHT22;8350;52.316;10.530;2022-11-20T01:21:05;-3.00;99.90
16479;DHT22;8350;52.316;10.530;2022-11-20T01:23:32;-3.00;99.90
16479;DHT22;8350;52.316;10.530;2022-11-20T01:26:01;-3.00;99.90
16479;DHT22;8350;52.316;10.530;2022-11-20T01:28:30;-3.00;99.90
16479;DHT22;8350;52.316;10.530;2022-11-20T01:30:58;-2.90;99.90
16479;DHT22;8350;52.316;10.530;2022-11-20T01:33:25;-2.90;99.90
16479;DHT22;8350;52.316;10.530;2022-11-20T01:35:52;-2.90;99.90
16479;DHT22;8350;52.316;10.530;2022-11-20T01:38:22;-2.90;99.90
16479;DHT22;8350;52.316;10.530;2022-11-20T01:40:55;-2.90;99.90
16479;DHT22;8350;52.316;10.530;2022-11-20T01:43:23;-2.90;99.90
16479;DHT22;8350;52.316;10.530;2022-11-20T01:46:02;-2.80;99.90
16479;DHT22;8350;52.316;10.530;2022-11-20T01:48:34;-2.80;99.90
16479;DHT22;8350;52.316;10.530;2022-11-20T01:51:03;-2.70;99.90
16479;DHT22;8350;52.316;10.530;2022-11-20T01:53:33;-2.70;99.90
16479;DHT22;8350;52.316;10.530;2022-11-20T01:56:03;-2.60;99.90
16479;DHT22;8350;52.316;10.530;2022-11-20T01:58:34;-2.60;99.90
16479;DHT22;8350;52.316;10.530;2022-11-20T02:01:03;-2.50;99.90
16479;DHT22;8350;52.316;10.530;2022-11-20T02:03:31;-2.40;99.90
16479;DHT22;8350;52.316;10.530;2022-11-20T02:06:08;-2.50;99.90
16479;DHT22;8350;52.316;10.530;2022-11-20T02:08:38;-2.60;99.90
16479;DHT22;8350;52.316;10.530;2022-11-20T02:11:05;-2.60;99.90
16479;DHT22;8350;52.316;10.530;2022-11-20T02:13:33;-2.60;99.90
16479;DHT22;8350;52.316;10.530;2022-11-20T02:16:15;-2.60;99.90
16479;DHT22;8350;52.316;10.530;2022-11-20T02:18:44;-2.60;99.90
16479;DHT22;8350;52.316;10.530;2022-11-20T02:21:24;-2.60;99.90
16479;DHT22;8350;52.316;10.530;2022-11-20T02:24:13;-2.60;99.90
16479;DHT22;8350;52.316;10.530;2022-11-20T02:26:46;-2.60;99.90
16479;DHT22;8350;52.316;10.530;2022-11-20T02:29:17;-2.50;99.90
16479;DHT22;8350;52.316;10.530;2022-11-20T02:31:46;-2.40;99.90
16479;DHT22;8350;52.316;10.530;2022-11-20T02:34:13;-2.30;99.90
16479;DHT22;8350;52.316;10.530;2022-11-20T02:36:41;-2.30;99.90
16479;DHT22;8350;52.316;10.530;2022-11-20T02:39:10;-2.20;99.90
16479;DHT22;8350;52.316;10.530;2022-11-20T02:41:39;-2.30;99.90
16479;DHT22;8350;52.316;10.530;2022-11-20T02:44:06;-2.30;99.90
16479;DHT22;8350;52.316;10.530;2022-11-20T02:46:34;-2.30;99.90
16479;DHT22;8350;52.316;10.530;2022-11-20T02:49:02;-2.30;99.90
16479;DHT22;8350;52.316;10.530;2022-11-20T02:51:29;-2.30;99.90
16479;DHT22;8350;52.316;10.530;2022-11-20T02:53:56;-2.40;99.90
16479;DHT22;8350;52.316;10.530;2022-11-20T02:56:24;-2.30;99.90
16479;DHT22;8350;52.316;10.530;2022-11-20T02:58:52;-2.30;99.90
16479;DHT22;8350;52.316;10.530;2022-11-20T03:01:19;-2.20;99.90
16479;DHT22;8350;52.316;10.530;2022-11-20T03:03:46;-2.20;99.90
16479;DHT22;8350;52.316;10.530;2022-11-20T03:06:14;-2.10;99.90
16479;DHT22;8350;52.316;10.530;2022-11-20T03:08:41;-2.10;99.90
16479;DHT22;8350;52.316;10.530;2022-11-20T03:11:09;-2.10;99.90
16479;DHT22;8350;52.316;10.530;2022-11-20T03:13:36;-2.00;99.90
16479;DHT22;8350;52.316;10.530;2022-11-20T03:16:13;-2.00;99.90
16479;DHT22;8350;52.316;10.530;2022-11-20T03:18:41;-2.00;99.90
16479;DHT22;8350;52.316;10.530;2022-11-20T03:21:09;-2.00;99.90
16479;DHT22;8350;52.316;10.530;2022-11-20T03:23:37;-2.00;99.90
16479;DHT22;8350;52.316;10.530;2022-11-20T03:26:16;-2.00;99.90
16479;DHT22;8350;52.316;10.530;2022-11-20T03:28:48;-1.90;99.90
16479;DHT22;8350;52.316;10.530;2022-11-20T03:31:23;-1.90;99.90
16479;DHT22;8350;52.316;10.530;2022-11-20T03:33:50;-1.90;99.90
16479;DHT22;8350;52.316;10.530;2022-11-20T03:36:19;-1.90;99.90
16479;DHT22;8350;52.316;10.530;2022-11-20T03:38:46;-1.90;99.90
16479;DHT22;8350;52.316;10.530;2022-11-20T03:41:15;-1.90;99.90
16479;DHT22;8350;52.316;10.530;2022-11-20T03:43:46;-1.90;99.90
16479;DHT22;8350;52.316;10.530;2022-11-20T03:46:13;-1.90;99.90
16479;DHT22;8350;52.316;10.530;2022-11-20T03:48:41;-1.90;99.90
16479;DHT22;8350;52.316;10.530;2022-11-20T03:51:10;-1.90;99.90
16479;DHT22;8350;52.316;10.530;2022-11-20T03:53:37;-2.00;99.90
16479;DHT22;8350;52.316;10.530;2022-11-20T03:56:04;-2.00;99.90
16479;DHT22;8350;52.316;10.530;2022-11-20T03:58:33;-2.10;99.90
16479;DHT22;8350;52.316;10.530;2022-11-20T04:01:05;-2.30;99.90
16479;DHT22;8350;52.316;10.530;2022-11-20T04:03:32;-2.40;99.90
16479;DHT22;8350;52.316;10.530;2022-11-20T04:06:03;-2.50;99.90
16479;DHT22;8350;52.316;10.530;2022-11-20T04:08:30;-2.60;99.90
16479;DHT22;8350;52.316;10.530;2022-11-20T04:11:08;-2.60;99.90
16479;DHT22;8350;52.316;10.530;2022-11-20T04:13:37;-2.60;99.90
16479;DHT22;8350;52.316;10.530;2022-11-20T04:16:04;-2.60;99.90
16479;DHT22;8350;52.316;10.530;2022-11-20T04:18:32;-2.60;99.90
16479;DHT22;8350;52.316;10.530;2022-11-20T04:20:59;-2.70;99.90
16479;DHT22;8350;52.316;10.530;2022-11-20T04:23:28;-2.70;99.90
16479;DHT22;8350;52.316;10.530;2022-11-20T04:26:01;-2.70;99.90
16479;DHT22;8350;52.316;10.530;2022-11-20T04:28:28;-2.60;99.90
16479;DHT22;8350;52.316;10.530;2022-11-20T04:31:02;-2.60;99.90
16479;DHT22;8350;52.316;10.530;2022-11-20T04:33:29;-2.60;99.90
16479;DHT22;8350;52.316;10.530;2022-11-20T04:36:01;-2.70;99.90
16479;DHT22;8350;52.316;10.530;2022-11-20T04:38:30;-2.60;99.90
16479;DHT22;8350;52.316;10.530;2022-11-20T04:40:58;-2.70;99.90
16479;DHT22;8350;52.316;10.530;2022-11-20T04:43:25;-2.70;99.90
16479;DHT22;8350;52.316;10.530;2022-11-20T04:45:53;-2.70;99.90
16479;DHT22;8350;52.316;10.530;2022-11-20T04:48:20;-2.70;99.90
16479;DHT22;8350;52.316;10.530;2022-11-20T04:50:47;-2.80;99.90
16479;DHT22;8350;52.316;10.530;2022-11-20T04:53:14;-2.80;99.90
16479;DHT22;8350;52.316;10.530;2022-11-20T04:55:45;-2.80;99.90
16479;DHT22;8350;52.316;10.530;2022-11-20T04:58:14;-2.80;99.90
16479;DHT22;8350;52.316;10.530;2022-11-20T05:00:41;-2.80;99.90
16479;DHT22;8350;52.316;10.530;2022-11-20T05:03:08;-2.80;99.90
16479;DHT22;8350;52.316;10.530;2022-11-20T05:05:35;-2.80;99.90
16479;DHT22;8350;52.316;10.530;2022-11-20T05:08:02;-2.80;99.90
16479;DHT22;8350;52.316;10.530;2022-11-20T05:10:29;-2.70;99.90
16479;DHT22;8350;52.316;10.530;2022-11-20T05:12:58;-2.70;99.90
16479;DHT22;8350;52.316;10.530;2022-11-20T05:15:25;-2.70;99.90
16479;DHT22;8350;52.316;10.530;2022-11-20T05:17:52;-2.60;99.90
16479;DHT22;8350;52.316;10.530;2022-11-20T05:20:26;-2.60;99.90
16479;DHT22;8350;52.316;10.530;2022-11-20T05:22:56;-2.60;99.90
16479;DHT22;8350;52.316;10.530;2022-11-20T05:25:23;-2.60;99.90
16479;DHT22;8350;52.316;10.530;2022-11-20T05:27:52;-2.60;99.90
16479;DHT22;8350;52.316;10.530;2022-11-20T05:30:21;-2.50;99.90
16479;DHT22;8350;52.316;10.530;2022-11-20T05:32:48;-2.50;99.90
16479;DHT22;8350;52.316;10.530;2022-11-20T05:35:17;-2.50;99.90
16479;DHT22;8350;52.316;10.530;2022-11-20T05:37:44;-2.50;99.90
16479;DHT22;8350;52.316;10.530;2022-11-20T05:40:12;-2.40;99.90
16479;DHT22;8350;52.316;10.530;2022-11-20T05:42:39;-2.30;99.90
16479;DHT22;8350;52.316;10.530;2022-11-20T05:45:11;-2.30;99.90
16479;DHT22;8350;52.316;10.530;2022-11-20T05:47:39;-2.20;99.90
16479;DHT22;8350;52.316;10.530;2022-11-20T05:50:07;-2.30;99.90
16479;DHT22;8350;52.316;10.530;2022-11-20T05:52:34;-2.30;99.90
16479;DHT22;8350;52.316;10.530;2022-11-20T05:55:02;-2.30;99.90
16479;DHT22;8350;52.316;10.530;2022-11-20T05:57:30;-2.30;99.90
16479;DHT22;8350;52.316;10.530;2022-11-20T05:59:57;-2.30;99.90
16479;DHT22;8350;52.316;10.530;2022-11-20T06:02:28;-2.20;99.90
16479;DHT22;8350;52.316;10.530;2022-11-20T06:04:56;-2.20;99.90
16479;DHT22;8350;52.316;10.530;2022-11-20T06:07:23;-2.20;99.90
16479;DHT22;8350;52.316;10.530;2022-11-20T06:09:50;-2.20;99.90
16479;DHT22;8350;52.316;10.530;2022-11-20T06:12:17;-2.20;99.90
16479;DHT22;8350;52.316;10.530;2022-11-20T06:14:44;-2.10;99.90
16479;DHT22;8350;52.316;10.530;2022-11-20T06:17:11;-2.20;99.90
16479;DHT22;8350;52.316;10.530;2022-11-20T06:19:38;-2.20;99.90
16479;DHT22;8350;52.316;10.530;2022-11-20T06:22:06;-2.20;99.90
16479;DHT22;8350;52.316;10.530;2022-11-20T06:24:35;-2.20;99.90
16479;DHT22;8350;52.316;10.530;2022-11-20T06:27:05;-2.10;99.90
16479;DHT22;8350;52.316;10.530;2022-11-20T06:29:32;-2.10;99.90
16479;DHT22;8350;52.316;10.530;2022-11-20T06:32:00;-2.10;99.90
16479;DHT22;8350;52.316;10.530;2022-11-20T06:34:27;-2.00;99.90
16479;DHT22;8350;52.316;10.530;2022-11-20T06:36:54;-1.90;99.90
16479;DHT22;8350;52.316;10.530;2022-11-20T06:39:22;-1.90;99.90
16479;DHT22;8350;52.316;10.530;2022-11-20T06:41:49;-1.90;99.90
16479;DHT22;8350;52.316;10.530;2022-11-20T06:44:16;-1.90;99.90
16479;DHT22;8350;52.316;10.530;2022-11-20T06:46:43;-1.90;99.90
16479;DHT22;8350;52.316;10.530;2022-11-20T06:49:12;-1.90;99.90
16479;DHT22;8350;52.316;10.530;2022-11-20T06:51:39;-1.90;99.90
16479;DHT22;8350;52.316;10.530;2022-11-20T06:54:06;-1.90;99.90
16479;DHT22;8350;52.316;10.530;2022-11-20T06:56:39;-1.90;99.90
16479;DHT22;8350;52.316;10.530;2022-11-20T06:59:06;-1.90;99.90
16479;DHT22;8350;52.316;10.530;2022-11-20T07:01:33;-1.90;99.90
16479;DHT22;8350;52.316;10.530;2022-11-20T07:04:03;-1.80;99.90
16479;DHT22;8350;52.316;10.530;2022-11-20T07:06:30;-1.80;99.90
16479;DHT22;8350;52.316;10.530;2022-11-20T07:08:57;-1.80;99.90
16479;DHT22;8350;52.316;10.530;2022-11-20T07:11:24;-1.70;99.90
16479;DHT22;8350;52.316;10.530;2022-11-20T07:14:00;-1.70;99.90
16479;DHT22;8350;52.316;10.530;2022-11-20T07:16:40;-1.80;99.90
16479;DHT22;8350;52.316;10.530;2022-11-20T07:19:07;-1.90;99.90
16479;DHT22;8350;52.316;10.530;2022-11-20T07:21:37;-1.90;99.90
16479;DHT22;8350;52.316;10.530;2022-11-20T07:24:04;-1.80;99.90
16479;DHT22;8350;52.316;10.530;2022-11-20T07:26:31;-1.80;99.90
16479;DHT22;8350;52.316;10.530;2022-11-20T07:28:59;-1.90;99.90
16479;DHT22;8350;52.316;10.530;2022-11-20T07:31:26;-1.80;99.90
16479;DHT22;8350;52.316;10.530;2022-11-20T07:33:53;-1.80;99.90
16479;DHT22;8350;52.316;10.530;2022-11-20T07:36:21;-1.70;99.90
16479;DHT22;8350;52.316;10.530;2022-11-20T07:38:48;-1.70;99.90
16479;DHT22;8350;52.316;10.530;2022-11-20T07:41:15;-1.60;99.90
16479;DHT22;8350;52.316;10.530;2022-11-20T07:43:42;-1.60;99.90
16479;DHT22;8350;52.316;10.530;2022-11-20T07:46:10;-1.50;99.90
16479;DHT22;8350;52.316;10.530;2022-11-20T07:48:37;-1.40;99.90
16479;DHT22;8350;52.316;10.530;2022-11-20T07:51:04;-1.40;99.90
16479;DHT22;8350;52.316;10.530;2022-11-20T07:53:31;-1.40;99.90
16479;DHT22;8350;52.316;10.530;2022-11-20T07:55:59;-1.30;99.90
16479;DHT22;8350;52.316;10.530;2022-11-20T07:58:26;-1.30;99.90
16479;DHT22;8350;52.316;10.530;2022-11-20T08:01:01;-1.30;99.90
16479;DHT22;8350;52.316;10.530;2022-11-20T08:03:30;-1.30;99.90
16479;DHT22;8350;52.316;10.530;2022-11-20T08:05:58;-1.20;99.90
16479;DHT22;8350;52.316;10.530;2022-11-20T08:08:29;-1.40;99.90
16479;DHT22;8350;52.316;10.530;2022-11-20T08:10:56;-1.40;99.90
16479;DHT22;8350;52.316;10.530;2022-11-20T08:13:43;-1.30;99.90
16479;DHT22;8350;52.316;10.530;2022-11-20T08:16:28;-1.30;99.90
16479;DHT22;8350;52.316;10.530;2022-11-20T08:18:59;-1.30;99.90
16479;DHT22;8350;52.316;10.530;2022-11-20T08:21:26;-1.10;99.90
16479;DHT22;8350;52.316;10.530;2022-11-20T08:23:57;-1.10;99.90
16479;DHT22;8350;52.316;10.530;2022-11-20T08:26:24;-1.20;99.90
16479;DHT22;8350;52.316;10.530;2022-11-20T08:28:53;-1.10;99.90
16479;DHT22;8350;52.316;10.530;2022-11-20T08:31:20;-1.10;99.90
16479;DHT22;8350;52.316;10.530;2022-11-20T08:33:47;-1.10;99.90
16479;DHT22;8350;52.316;10.530;2022-11-20T08:36:16;-1.00;99.90
16479;DHT22;8350;52.316;10.530;2022-11-20T08:38:47;-1.10;99.90
16479;DHT22;8350;52.316;10.530;2022-11-20T08:41:14;-1.00;99.90
16479;DHT22;8350;52.316;10.530;2022-11-20T08:43:52;-1.10;99.90
16479;DHT22;8350;52.316;10.530;2022-11-20T08:46:19;-0.90;99.90
16479;DHT22;8350;52.316;10.530;2022-11-20T08:48:46;-0.90;99.90
16479;DHT22;8350;52.316;10.530;2022-11-20T08:51:13;-0.90;99.90
16479;DHT22;8350;52.316;10.530;2022-11-20T08:53:42;-0.90;99.90
16479;DHT22;8350;52.316;10.530;2022-11-20T08:56:09;-0.90;99.90
16479;DHT22;8350;52.316;10.530;2022-11-20T08:58:37;-0.90;99.90
16479;DHT22;8350;52.316;10.530;2022-11-20T09:01:04;-0.90;99.90
16479;DHT22;8350;52.316;10.530;2022-11-20T09:03:31;-0.90;97.70
16479;DHT22;8350;52.316;10.530;2022-11-20T09:05:58;-0.90;99.90
16479;DHT22;8350;52.316;10.530;2022-11-20T09:08:27;-1.00;95.10
16479;DHT22;8350;52.316;10.530;2022-11-20T09:10:56;-0.90;99.90
16479;DHT22;8350;52.316;10.530;2022-11-20T09:13:30;-0.70;99.90
16479;DHT22;8350;52.316;10.530;2022-11-20T09:15:59;-0.60;99.90
16479;DHT22;8350;52.316;10.530;2022-11-20T09:18:28;-0.50;99.90
16479;DHT22;8350;52.316;10.530;2022-11-20T09:20:57;-0.30;99.90
16479;DHT22;8350;52.316;10.530;2022-11-20T09:23:24;-0.10;84.90
16479;DHT22;8350;52.316;10.530;2022-11-20T09:25:51;-0.10;81.90
16479;DHT22;8350;52.316;10.530;2022-11-20T09:28:22;-0.20;76.50
16479;DHT22;8350;52.316;10.530;2022-11-20T09:30:49;-0.20;53.70
16479;DHT22;8350;52.316;10.530;2022-11-20T09:33:16;-0.10;69.20
16479;DHT22;8350;52.316;10.530;2022-11-20T09:35:43;0.10;72.50
16479;DHT22;8350;52.316;10.530;2022-11-20T09:38:11;0.10;69.30
16479;DHT22;8350;52.316;10.530;2022-11-20T09:40:44;0.20;47.50
16479;DHT22;8350;52.316;10.530;2022-11-20T09:43:18;0.10;39.90
16479;DHT22;8350;52.316;10.530;2022-11-20T09:45:58;0.10;36.00
16479;DHT22;8350;52.316;10.530;2022-11-20T09:48:47;0.10;49.00
16479;DHT22;8350;52.316;10.530;2022-11-20T09:51:22;0.10;52.00
16479;DHT22;8350;52.316;10.530;2022-11-20T09:54:00;0.20;40.90
16479;DHT22;8350;52.316;10.530;2022-11-20T09:56:33;0.20;37.70
16479;DHT22;8350;52.316;10.530;2022-11-20T09:59:03;0.20;38.90
16479;DHT22;8350;52.316;10.530;2022-11-20T10:01:35;0.20;46.50
16479;DHT22;8350;52.316;10.530;2022-11-20T10:04:12;0.30;28.80
16479;DHT22;8350;52.316;10.530;2022-11-20T10:06:44;0.30;21.20
16479;DHT22;8350;52.316;10.530;2022-11-20T10:09:21;0.30;42.90
16479;DHT22;8350;52.316;10.530;2022-11-20T10:11:58;0.40;44.80
16479;DHT22;8350;52.316;10.530;2022-11-20T10:14:36;0.40;36.40
16479;DHT22;8350;52.316;10.530;2022-11-20T10:17:12;0.30;34.80
16479;DHT22;8350;52.316;10.530;2022-11-20T10:19:56;0.40;43.80
16479;DHT22;8350;52.316;10.530;2022-11-20T10:22:35;0.60;48.00
16479;DHT22;8350;52.316;10.530;2022-11-20T10:25:12;0.70;40.30
16479;DHT22;8350;52.316;10.530;2022-11-20T10:27:55;0.90;20.90
16479;DHT22;8350;52.316;10.530;2022-11-20T10:30:23;0.90;21.60
16479;DHT22;8350;52.316;10.530;2022-11-20T10:32:56;0.90;11.00
16479;DHT22;8350;52.316;10.530;2022-11-20T10:35:31;0.90;1.70
16479;DHT22;8350;52.316;10.530;2022-11-20T10:38:02;0.80;3.40
16479;DHT22;8350;52.316;10.530;2022-11-20T10:40:35;0.70;1.00
16479;DHT22;8350;52.316;10.530;2022-11-20T10:43:10;0.70;18.50
16479;DHT22;8350;52.316;10.530;2022-11-20T10:45:52;0.70;30.50
16479;DHT22;8350;52.316;10.530;2022-11-20T10:48:23;0.80;29.90
16479;DHT22;8350;52.316;10.530;2022-11-20T10:51:00;0.80;25.40
16479;DHT22;8350;52.316;10.530;2022-11-20T10:53:58;0.90;18.60
16479;DHT22;8350;52.316;10.530;2022-11-20T10:56:38;1.00;17.20
16479;DHT22;8350;52.316;10.530;2022-11-20T10:59:35;1.00;14.30
16479;DHT22;8350;52.316;10.530;2022-11-20T11:02:15;1.10;16.40
16479;DHT22;8350;52.316;10.530;2022-11-20T11:04:46;1.10;17.60
16479;DHT22;8350;52.316;10.530;2022-11-20T11:07:16;1.10;20.00
16479;DHT22;8350;52.316;10.530;2022-11-20T11:09:47;1.00;16.80
16479;DHT22;8350;52.316;10.530;2022-11-20T11:12:15;1.00;28.00
16479;DHT22;8350;52.316;10.530;2022-11-20T11:14:46;0.90;28.00
16479;DHT22;8350;52.316;10.530;2022-11-20T11:17:26;0.90;41.30
16479;DHT22;8350;52.316;10.530;2022-11-20T11:20:04;1.10;45.80
16479;DHT22;8350;52.316;10.530;2022-11-20T11:22:34;1.10;28.80
16479;DHT22;8350;52.316;10.530;2022-11-20T11:25:01;1.20;26.50
16479;DHT22;8350;52.316;10.530;2022-11-20T11:27:31;1.30;15.70
16479;DHT22;8350;52.316;10.530;2022-11-20T11:30:16;1.40;25.30
16479;DHT22;8350;52.316;10.530;2022-11-20T11:33:01;1.50;15.20
16479;DHT22;8350;52.316;10.530;2022-11-20T11:35:43;1.50;7.90
16479;DHT22;8350;52.316;10.530;2022-11-20T11:38:28;1.60;17.70
16479;DHT22;8350;52.316;10.530;2022-11-20T11:41:02;1.50;14.10
16479;DHT22;8350;52.316;10.530;2022-11-20T11:43:51;1.60;21.30
16479;DHT22;8350;52.316;10.530;2022-11-20T11:46:36;1.60;9.60
16479;DHT22;8350;52.316;10.530;2022-11-20T11:49:15;1.60;9.00
16479;DHT22;8350;52.316;10.530;2022-11-20T11:54:45;1.50;2.20
16479;DHT22;8350;52.316;10.530;2022-11-20T11:57:20;1.50;6.60
16479;DHT22;8350;52.316;10.530;2022-11-20T12:00:01;1.40;25.60
16479;DHT22;8350;52.316;10.530;2022-11-20T12:02:36;1.50;40.20
16479;DHT22;8350;52.316;10.530;2022-11-20T12:05:13;1.70;29.00
16479;DHT22;8350;52.316;10.530;2022-11-20T12:07:46;1.70;30.50
16479;DHT22;8350;52.316;10.530;2022-11-20T12:10:21;1.80;27.10
16479;DHT22;8350;52.316;10.530;2022-11-20T12:12:52;1.90;25.00
16479;DHT22;8350;52.316;10.530;2022-11-20T12:15:30;1.90;9.90
16479;DHT22;8350;52.316;10.530;2022-11-20T12:18:04;2.00;11.20
16479;DHT22;8350;52.316;10.530;2022-11-20T12:20:38;2.10;11.80
16479;DHT22;8350;52.316;10.530;2022-11-20T12:23:15;2.20;1.00
16479;DHT22;8350;52.316;10.530;2022-11-20T12:25:51;2.30;1.00
16479;DHT22;8350;52.316;10.530;2022-11-20T12:28:36;2.50;1.00
16479;DHT22;8350;52.316;10.530;2022-11-20T12:31:42;2.60;1.00
16479;DHT22;8350;52.316;10.530;2022-11-20T12:34:41;2.60;1.00
16479;DHT22;8350;52.316;10.530;2022-11-20T12:37:21;2.50;1.00
16479;DHT22;8350;52.316;10.530;2022-11-20T12:39:55;2.50;1.00
16479;DHT22;8350;52.316;10.530;2022-11-20T12:42:44;2.50;1.00
16479;DHT22;8350;52.316;10.530;2022-11-20T12:45:46;2.40;1.00
16479;DHT22;8350;52.316;10.530;2022-11-20T12:55:07;2.30;1.00
16479;DHT22;8350;52.316;10.530;2022-11-20T12:57:41;2.20;1.00
16479;DHT22;8350;52.316;10.530;2022-11-20T13:00:25;2.10;1.00
16479;DHT22;8350;52.316;10.530;2022-11-20T13:03:09;2.10;2.60
16479;DHT22;8350;52.316;10.530;2022-11-20T13:05:49;2.00;1.00
16479;DHT22;8350;52.316;10.530;2022-11-20T13:08:23;1.90;2.50
16479;DHT22;8350;52.316;10.530;2022-11-20T13:10:59;2.00;6.10
16479;DHT22;8350;52.316;10.530;2022-11-20T13:13:35;2.10;15.10
16479;DHT22;8350;52.316;10.530;2022-11-20T13:16:08;2.20;1.00
16479;DHT22;8350;52.316;10.530;2022-11-20T13:18:39;2.20;1.00
16479;DHT22;8350;52.316;10.530;2022-11-20T13:21:16;2.20;1.00
16479;DHT22;8350;52.316;10.530;2022-11-20T13:23:43;2.10;1.00
16479;DHT22;8350;52.316;10.530;2022-11-20T13:26:20;2.10;1.00
16479;DHT22;8350;52.316;10.530;2022-11-20T13:28:59;2.10;1.00
16479;DHT22;8350;52.316;10.530;2022-11-20T13:31:31;2.00;1.00
16479;DHT22;8350;52.316;10.530;2022-11-20T13:34:01;2.00;1.00
16479;DHT22;8350;52.316;10.530;2022-11-20T13:36:29;2.00;1.00
16479;DHT22;8350;52.316;10.530;2022-11-20T13:38:58;1.90;1.00
16479;DHT22;8350;52.316;10.530;2022-11-20T13:41:28;1.90;1.00
16479;DHT22;8350;52.316;10.530;2022-11-20T13:44:09;1.90;1.00
16479;DHT22;8350;52.316;10.530;2022-11-20T13:46:39;1.90;1.00
16479;DHT22;8350;52.316;10.530;2022-11-20T13:49:14;1.90;1.00
16479;DHT22;8350;52.316;10.530;2022-11-20T13:51:44;1.90;1.00
16479;DHT22;8350;52.316;10.530;2022-11-20T13:57:46;1.70;1.40
16479;DHT22;8350;52.316;10.530;2022-11-20T14:00:18;1.70;5.40
16479;DHT22;8350;52.316;10.530;2022-11-20T14:02:57;1.60;1.00
16479;DHT22;8350;52.316;10.530;2022-11-20T14:05:31;1.60;18.20
16479;DHT22;8350;52.316;10.530;2022-11-20T14:08:03;1.60;11.40
16479;DHT22;8350;52.316;10.530;2022-11-20T14:10:31;1.60;19.90
16479;DHT22;8350;52.316;10.530;2022-11-20T14:13:10;1.60;24.90
16479;DHT22;8350;52.316;10.530;2022-11-20T14:15:39;1.60;35.90
16479;DHT22;8350;52.316;10.530;2022-11-20T14:18:13;1.60;25.80
16479;DHT22;8350;52.316;10.530;2022-11-20T14:20:44;1.60;26.00
16479;DHT22;8350;52.316;10.530;2022-11-20T14:23:12;1.60;34.70
16479;DHT22;8350;52.316;10.530;2022-11-20T14:25:42;1.60;34.60
16479;DHT22;8350;52.316;10.530;2022-11-20T14:28:22;1.40;38.90
16479;DHT22;8350;52.316;10.530;2022-11-20T14:30:54;1.30;42.30
16479;DHT22;8350;52.316;10.530;2022-11-20T14:33:22;1.40;38.70
16479;DHT22;8350;52.316;10.530;2022-11-20T14:35:54;1.40;39.80
16479;DHT22;8350;52.316;10.530;2022-11-20T14:38:24;1.30;31.60
16479;DHT22;8350;52.316;10.530;2022-11-20T14:40:52;1.30;39.90
16479;DHT22;8350;52.316;10.530;2022-11-20T14:43:23;1.30;45.60
16479;DHT22;8350;52.316;10.530;2022-11-20T14:45:56;1.30;39.80
16479;DHT22;8350;52.316;10.530;2022-11-20T14:48:28;1.20;28.20
16479;DHT22;8350;52.316;10.530;2022-11-20T14:50:57;1.20;34.10
16479;DHT22;8350;52.316;10.530;2022-11-20T14:53:24;1.20;30.00
16479;DHT22;8350;52.316;10.530;2022-11-20T14:55:56;1.20;26.10
16479;DHT22;8350;52.316;10.530;2022-11-20T14:58:26;1.20;40.10
16479;DHT22;8350;52.316;10.530;2022-11-20T15:00:55;1.10;33.50
16479;DHT22;8350;52.316;10.530;2022-11-20T15:03:23;1.10;32.40
16479;DHT22;8350;52.316;10.530;2022-11-20T15:05:50;1.10;51.90
16479;DHT22;8350;52.316;10.530;2022-11-20T15:08:18;1.10;49.10
16479;DHT22;8350;52.316;10.530;2022-11-20T15:10:47;1.10;51.40
16479;DHT22;8350;52.316;10.530;2022-11-20T15:13:17;1.00;67.80
16479;DHT22;8350;52.316;10.530;2022-11-20T15:15:50;0.90;67.70
16479;DHT22;8350;52.316;10.530;2022-11-20T15:18:20;0.90;90.90
16479;DHT22;8350;52.316;10.530;2022-11-20T15:20:48;0.90;90.60
16479;DHT22;8350;52.316;10.530;2022-11-20T15:23:17;0.90;96.40
16479;DHT22;8350;52.316;10.530;2022-11-20T15:25:45;0.80;94.10
16479;DHT22;8350;52.316;10.530;2022-11-20T15:28:16;0.70;96.70
16479;DHT22;8350;52.316;10.530;2022-11-20T15:30:44;0.70;99.90
16479;DHT22;8350;52.316;10.530;2022-11-20T15:33:13;0.70;99.90
16479;DHT22;8350;52.316;10.530;2022-11-20T15:35:41;0.70;99.90
16479;DHT22;8350;52.316;10.530;2022-11-20T15:38:08;0.80;99.90
16479;DHT22;8350;52.316;10.530;2022-11-20T15:40:37;0.80;99.90
16479;DHT22;8350;52.316;10.530;2022-11-20T15:43:04;0.80;99.90
16479;DHT22;8350;52.316;10.530;2022-11-20T15:45:38;0.80;99.90
16479;DHT22;8350;52.316;10.530;2022-11-20T15:48:09;0.70;99.90
16479;DHT22;8350;52.316;10.530;2022-11-20T15:50:43;0.80;99.90
16479;DHT22;8350;52.316;10.530;2022-11-20T15:53:13;0.80;99.90
16479;DHT22;8350;52.316;10.530;2022-11-20T15:55:40;0.80;99.90
16479;DHT22;8350;52.316;10.530;2022-11-20T15:58:08;0.70;99.90
16479;DHT22;8350;52.316;10.530;2022-11-20T16:00:35;0.70;99.90
16479;DHT22;8350;52.316;10.530;2022-11-20T16:03:02;0.60;99.90
16479;DHT22;8350;52.316;10.530;2022-11-20T16:05:29;0.50;99.90
16479;DHT22;8350;52.316;10.530;2022-11-20T16:07:58;0.40;99.90
16479;DHT22;8350;52.316;10.530;2022-11-20T16:10:25;0.40;99.90
16479;DHT22;8350;52.316;10.530;2022-11-20T16:12:52;0.40;99.90
16479;DHT22;8350;52.316;10.530;2022-11-20T16:15:36;0.40;99.90